createdAt,value
2019-03-13T00:04:08.919Z,9.02
2019-03-13T00:06:38.093Z,8.77
2019-03-13T00:09:12.118Z,8.69
2019-03-13T00:11:41.401Z,8.63
2019-03-13T00:14:10.626Z,8.50
2019-03-13T00:16:39.778Z,8.40
2019-03-13T00:19:09.158Z,8.31
2019-03-13T00:21:38.296Z,8.19
2019-03-13T00:24:07.507Z,8.12
2019-03-13T00:26:36.799Z,7.96
2019-03-13T00:29:06.139Z,7.84
2019-03-13T00:31:35.319Z,7.73
2019-03-13T00:34:05.172Z,7.60
2019-03-13T00:36:35.533Z,7.51
2019-03-13T00:39:06.797Z,7.40
2019-03-13T00:41:36.639Z,7.33
2019-03-13T00:44:06.264Z,7.24
2019-03-13T00:46:36.101Z,7.05
2019-03-13T00:49:06.146Z,6.98
2019-03-13T00:51:37.107Z,6.89
2019-03-13T00:54:07.795Z,6.87
2019-03-13T00:56:37.592Z,6.82
2019-03-13T00:59:08.150Z,6.77
2019-03-13T01:01:56.718Z,6.71
2019-03-13T01:04:44.895Z,6.60
2019-03-13T01:07:14.051Z,6.61
2019-03-13T01:09:43.452Z,6.52
2019-03-13T01:12:13.327Z,6.44
2019-03-13T01:14:43.655Z,6.39
2019-03-13T01:17:13.003Z,6.39
2019-03-13T01:19:42.540Z,6.35
2019-03-13T01:22:11.703Z,6.34
2019-03-13T01:24:40.845Z,6.30
2019-03-13T01:27:10.358Z,6.30
2019-03-13T01:29:39.828Z,6.28
2019-03-13T01:32:29.509Z,6.30
2019-03-13T01:35:08.630Z,6.30
2019-03-13T01:37:39.275Z,6.23
2019-03-13T01:40:10.942Z,6.23
2019-03-13T01:42:41.248Z,6.24
2019-03-13T01:45:11.676Z,6.26
2019-03-13T01:47:42.074Z,6.27
2019-03-13T01:50:12.946Z,6.25
2019-03-13T01:52:43.699Z,6.19
2019-03-13T01:55:14.274Z,6.12
2019-03-13T01:57:43.409Z,6.07
2019-03-13T02:00:13.617Z,5.93
2019-03-13T02:02:42.788Z,6.00
2019-03-13T02:05:12.500Z,6.00
2019-03-13T02:07:43.131Z,5.99
2019-03-13T02:10:14.540Z,6.00
2019-03-13T02:12:44.993Z,6.02
2019-03-13T02:15:16.790Z,5.98
2019-03-13T02:17:48.277Z,5.90
2019-03-13T02:20:19.171Z,5.95
2019-03-13T02:22:49.171Z,5.94
2019-03-13T02:25:19.260Z,6.02
2019-03-13T02:27:49.907Z,5.96
2019-03-13T02:30:21.711Z,5.98
2019-03-13T02:32:51.249Z,5.96
2019-03-13T02:35:21.128Z,5.92
2019-03-13T02:37:51.413Z,5.92
2019-03-13T02:40:23.668Z,5.91
2019-03-13T02:42:53.637Z,5.86
2019-03-13T02:45:23.805Z,5.85
2019-03-13T02:47:54.091Z,5.75
2019-03-13T02:50:25.220Z,5.68
2019-03-13T02:52:55.337Z,5.69
2019-03-13T02:55:26.847Z,5.75
2019-03-13T02:57:57.803Z,5.75
2019-03-13T03:00:45.807Z,5.77
2019-03-13T03:03:28.906Z,5.72
2019-03-13T03:06:00.633Z,5.65
2019-03-13T03:08:30.886Z,5.64
2019-03-13T03:11:01.415Z,5.59
2019-03-13T03:13:31.938Z,5.56
2019-03-13T03:16:02.597Z,5.58
2019-03-13T03:18:32.815Z,5.50
2019-03-13T03:21:02.351Z,5.38
2019-03-13T03:23:31.767Z,5.35
2019-03-13T03:26:01.987Z,5.35
2019-03-13T03:28:31.287Z,5.39
2019-03-13T03:31:00.947Z,5.48
2019-03-13T03:33:32.851Z,5.51
2019-03-13T03:36:04.897Z,5.58
2019-03-13T03:38:34.604Z,5.62
2019-03-13T03:41:05.331Z,5.69
2019-03-13T03:43:40.535Z,5.65
2019-03-13T03:46:07.532Z,5.59
2019-03-13T03:48:38.211Z,5.58
2019-03-13T03:51:07.889Z,5.65
2019-03-13T03:53:37.831Z,5.64
2019-03-13T03:56:09.178Z,5.71
2019-03-13T03:58:41.960Z,5.78
2019-03-13T04:01:11.153Z,5.69
2019-03-13T04:03:41.184Z,5.71
2019-03-13T04:06:11.845Z,5.75
2019-03-13T04:08:42.137Z,5.71
2019-03-13T04:11:11.846Z,5.85
2019-03-13T04:13:44.812Z,5.85
2019-03-13T04:16:13.001Z,5.80
2019-03-13T04:18:43.239Z,5.90
2019-03-13T04:21:12.605Z,5.95
2019-03-13T04:23:42.464Z,6.00
2019-03-13T04:26:13.090Z,6.02
2019-03-13T04:28:42.901Z,6.03
2019-03-13T04:31:12.106Z,6.02
2019-03-13T04:33:41.709Z,5.92
2019-03-13T04:36:11.647Z,6.01
2019-03-13T04:38:41.628Z,5.89
2019-03-13T04:41:11.354Z,5.87
2019-03-13T04:43:40.506Z,5.99
2019-03-13T04:46:09.649Z,6.10
2019-03-13T04:48:38.805Z,6.10
2019-03-13T04:51:07.975Z,5.99
2019-03-13T04:53:37.119Z,5.80
2019-03-13T04:56:06.393Z,5.67
2019-03-13T04:58:35.563Z,5.68
2019-03-13T05:01:04.702Z,5.84
2019-03-13T05:03:33.873Z,5.84
2019-03-13T05:06:28.502Z,5.76
2019-03-13T05:09:19.251Z,5.79
2019-03-13T05:11:50.950Z,5.80
2019-03-13T05:14:21.440Z,5.84
2019-03-13T05:16:52.397Z,5.84
2019-03-13T05:19:22.154Z,5.92
2019-03-13T05:21:52.851Z,5.87
2019-03-13T05:24:22.824Z,5.84
2019-03-13T05:26:52.853Z,5.84
2019-03-13T05:29:22.611Z,5.77
2019-03-13T05:31:52.599Z,5.72
2019-03-13T05:34:21.955Z,5.69
2019-03-13T05:36:51.360Z,5.76
2019-03-13T05:39:20.549Z,5.83
2019-03-13T05:41:49.716Z,5.91
2019-03-13T05:44:19.002Z,5.93
2019-03-13T05:46:48.180Z,6.05
2019-03-13T05:49:17.436Z,5.97
2019-03-13T05:51:46.590Z,5.84
2019-03-13T05:54:15.913Z,5.89
2019-03-13T05:56:45.100Z,6.00
2019-03-13T05:59:14.402Z,6.04
2019-03-13T06:01:43.567Z,5.98
2019-03-13T06:04:12.707Z,6.00
2019-03-13T06:06:42.002Z,5.96
2019-03-13T06:09:11.143Z,5.94
2019-03-13T06:11:40.358Z,5.95
2019-03-13T06:14:09.593Z,5.90
2019-03-13T06:16:38.817Z,6.00
2019-03-13T06:19:07.988Z,5.93
2019-03-13T06:21:37.173Z,5.93
2019-03-13T06:24:06.540Z,5.98
2019-03-13T06:26:35.726Z,6.06
2019-03-13T06:29:04.917Z,6.09
2019-03-13T06:31:34.109Z,6.12
2019-03-13T06:34:03.449Z,6.14
2019-03-13T06:36:32.621Z,6.14
2019-03-13T06:39:01.876Z,6.19
2019-03-13T06:41:31.047Z,6.22
2019-03-13T06:44:00.227Z,6.13
2019-03-13T06:46:29.379Z,6.04
2019-03-13T06:48:58.686Z,6.03
2019-03-13T06:51:27.882Z,6.03
2019-03-13T06:53:57.093Z,6.03
2019-03-13T06:56:26.274Z,6.12
2019-03-13T06:59:20.736Z,6.27
2019-03-13T07:01:59.297Z,6.43
2019-03-13T07:04:53.343Z,6.55
2019-03-13T07:07:40.527Z,6.52
2019-03-13T07:10:34.977Z,6.43
2019-03-13T07:13:38.526Z,6.55
2019-03-13T07:16:30.706Z,6.64
2019-03-13T07:19:07.225Z,6.90
2019-03-13T07:21:49.636Z,7.02
2019-03-13T07:24:37.898Z,7.04
2019-03-13T07:27:25.999Z,6.89
2019-03-13T07:30:17.073Z,6.75
2019-03-13T07:32:59.285Z,6.65
2019-03-13T07:35:53.207Z,6.61
2019-03-13T07:38:30.272Z,6.62
2019-03-13T07:41:18.635Z,6.74
2019-03-13T07:44:01.273Z,6.87
2019-03-13T07:46:49.619Z,6.91
2019-03-13T07:49:36.992Z,7.05
2019-03-13T07:52:28.220Z,7.27
2019-03-13T07:55:18.397Z,7.40
2019-03-13T07:58:02.962Z,7.50
2019-03-13T08:00:48.869Z,7.54
2019-03-13T08:03:40.074Z,7.72
2019-03-13T08:06:37.551Z,7.67
2019-03-13T08:09:45.347Z,7.62
2019-03-13T08:12:26.263Z,7.70
2019-03-13T08:15:17.414Z,7.46
2019-03-13T08:18:05.768Z,7.54
2019-03-13T08:20:54.020Z,7.58
2019-03-13T08:23:45.149Z,7.43
2019-03-13T08:26:21.733Z,7.34
2019-03-13T08:29:15.802Z,7.31
2019-03-13T08:31:51.217Z,7.23
2019-03-13T08:34:38.921Z,7.32
2019-03-13T08:37:30.318Z,7.63
2019-03-13T08:40:12.442Z,7.54
2019-03-13T08:43:06.670Z,7.41
2019-03-13T08:46:03.882Z,7.53
2019-03-13T08:48:46.752Z,7.33
2019-03-13T08:51:29.816Z,7.41
2019-03-13T08:54:05.561Z,7.49
2019-03-13T08:56:59.921Z,7.51
2019-03-13T08:59:41.531Z,7.63
2019-03-13T09:02:32.501Z,7.87
2019-03-13T09:05:29.582Z,8.02
2019-03-13T09:08:16.561Z,8.00
2019-03-13T09:11:09.364Z,7.82
2019-03-13T09:14:12.663Z,7.86
2019-03-13T09:17:00.718Z,8.13
2019-03-13T09:19:54.183Z,7.94
2019-03-13T09:22:51.800Z,8.11
2019-03-13T09:25:34.107Z,8.25
2019-03-13T09:28:22.268Z,8.22
2019-03-13T09:31:13.934Z,8.30
2019-03-13T09:33:51.112Z,8.34
2019-03-13T09:36:42.055Z,8.16
2019-03-13T09:39:31.404Z,8.22
2019-03-13T09:42:22.824Z,8.25
2019-03-13T09:45:16.790Z,8.05
2019-03-13T09:48:10.741Z,7.85
2019-03-13T09:50:55.304Z,8.06
2019-03-13T09:53:31.886Z,7.90
2019-03-13T09:56:31.927Z,7.73
2019-03-13T09:59:18.900Z,7.84
2019-03-13T10:02:12.808Z,8.33
2019-03-13T10:05:10.086Z,8.60
2019-03-13T10:07:53.312Z,8.74
2019-03-13T10:10:53.709Z,8.43
2019-03-13T10:13:34.720Z,8.62
2019-03-13T10:16:16.488Z,9.04
2019-03-13T10:19:16.893Z,8.98
2019-03-13T10:21:56.341Z,9.06
2019-03-13T10:24:41.677Z,9.21
2019-03-13T10:27:29.998Z,9.11
2019-03-13T10:30:18.164Z,9.04
2019-03-13T10:32:58.766Z,9.31
2019-03-13T10:35:47.300Z,9.33
2019-03-13T10:38:38.227Z,9.03
2019-03-13T10:41:27.403Z,8.87
2019-03-13T10:44:18.547Z,8.39
2019-03-13T10:46:55.431Z,8.38
2019-03-13T10:49:58.571Z,8.28
2019-03-13T10:52:49.586Z,8.13
2019-03-13T10:55:37.714Z,8.01
2019-03-13T10:58:32.025Z,7.92
2019-03-13T11:01:26.123Z,7.90
2019-03-13T11:04:13.660Z,7.91
2019-03-13T11:06:55.501Z,8.08
2019-03-13T11:09:31.687Z,8.09
2019-03-13T11:12:18.024Z,7.96
2019-03-13T11:15:12.330Z,7.87
2019-03-13T11:18:00.155Z,8.00
2019-03-13T11:20:51.360Z,8.08
2019-03-13T11:23:42.859Z,8.11
2019-03-13T11:26:34.043Z,8.35
2019-03-13T11:29:24.960Z,8.15
2019-03-13T11:32:05.963Z,8.13
2019-03-13T11:34:54.539Z,8.08
2019-03-13T11:37:42.729Z,8.23
2019-03-13T11:40:27.245Z,8.14
2019-03-13T11:43:12.876Z,7.95
2019-03-13T11:45:59.782Z,7.95
2019-03-13T11:48:57.021Z,8.07
2019-03-13T11:51:45.547Z,8.07
2019-03-13T11:54:36.572Z,7.92
2019-03-13T11:57:18.251Z,8.10
2019-03-13T11:59:57.869Z,7.90
2019-03-13T12:02:43.924Z,7.38
2019-03-13T12:05:32.200Z,6.68
2019-03-13T12:08:35.391Z,6.70
2019-03-13T12:11:32.793Z,6.91
2019-03-13T12:14:27.213Z,6.90
2019-03-13T12:17:15.847Z,6.96
2019-03-13T12:19:50.907Z,7.47
2019-03-13T12:22:45.535Z,7.69
2019-03-13T12:25:28.483Z,7.67
2019-03-13T12:28:08.629Z,7.93
2019-03-13T12:31:02.676Z,8.26
2019-03-13T12:33:54.403Z,8.15
2019-03-13T12:36:43.191Z,8.04
2019-03-13T12:39:34.581Z,8.16
2019-03-13T12:42:33.831Z,8.22
2019-03-13T12:45:28.781Z,8.45
2019-03-13T12:48:16.915Z,8.81
2019-03-13T12:51:11.428Z,8.66
2019-03-13T12:57:37.392Z,8.90
2019-03-13T13:00:16.011Z,9.13
2019-03-13T13:02:59.165Z,8.93
2019-03-13T13:05:44.384Z,9.29
2019-03-13T13:08:33.053Z,9.61
2019-03-13T13:11:24.763Z,9.88
2019-03-13T13:14:19.049Z,10.21
2019-03-13T13:17:06.125Z,10.11
2019-03-13T13:19:36.671Z,9.54
2019-03-13T13:22:06.829Z,9.40
2019-03-13T13:24:36.990Z,9.69
2019-03-13T13:27:07.344Z,9.65
2019-03-13T13:29:37.363Z,9.53
2019-03-13T13:32:07.878Z,9.52
2019-03-13T13:34:38.087Z,9.43
2019-03-13T13:37:08.042Z,9.54
2019-03-13T13:39:37.236Z,9.61
2019-03-13T13:42:06.370Z,9.61
2019-03-13T13:44:35.539Z,9.65
2019-03-13T13:47:04.688Z,9.76
2019-03-13T13:49:33.845Z,10.05
2019-03-13T13:52:03.368Z,10.30
2019-03-13T13:54:32.520Z,10.25
2019-03-13T13:57:02.002Z,10.08
2019-03-13T13:59:31.498Z,9.59
2019-03-13T14:02:00.827Z,9.35
2019-03-13T14:04:30.243Z,9.27
2019-03-13T14:06:59.598Z,9.07
2019-03-13T14:09:28.938Z,9.42
2019-03-13T14:11:58.240Z,9.36
2019-03-13T14:14:27.928Z,9.18
2019-03-13T14:16:57.639Z,9.16
2019-03-13T14:19:27.239Z,9.55
2019-03-13T14:21:56.934Z,9.45
2019-03-13T14:24:27.192Z,9.15
2019-03-13T14:26:57.041Z,9.19
2019-03-13T14:29:27.058Z,9.17
2019-03-13T14:31:56.832Z,9.13
2019-03-13T14:34:26.646Z,9.18
2019-03-13T14:36:56.943Z,9.15
2019-03-13T14:39:26.894Z,9.02
2019-03-13T14:41:56.598Z,8.93
2019-03-13T14:44:26.155Z,8.84
2019-03-13T14:46:56.062Z,8.74
2019-03-13T14:49:25.443Z,8.58
2019-03-13T14:51:55.145Z,8.57
2019-03-13T14:54:24.727Z,8.52
2019-03-13T14:56:54.148Z,8.50
2019-03-13T14:59:24.552Z,8.39
2019-03-13T15:01:54.015Z,8.45
2019-03-13T15:04:24.273Z,8.51
2019-03-13T15:06:54.924Z,8.58
2019-03-13T15:09:24.624Z,8.63
2019-03-13T15:11:55.465Z,8.65
2019-03-13T15:14:25.665Z,8.44
2019-03-13T15:16:55.779Z,8.34
2019-03-13T15:19:26.179Z,8.26
2019-03-13T15:21:56.371Z,8.27
2019-03-13T15:24:26.163Z,8.15
2019-03-13T15:26:56.479Z,8.05
2019-03-13T15:29:26.585Z,7.91
2019-03-13T15:31:56.703Z,7.87
2019-03-13T15:34:27.142Z,7.94
2019-03-13T15:36:57.896Z,7.86
2019-03-13T15:39:28.037Z,7.93
2019-03-13T15:41:57.680Z,8.04
2019-03-13T15:44:27.805Z,8.11
2019-03-13T15:46:57.610Z,8.16
2019-03-13T15:49:27.668Z,8.17
2019-03-13T15:51:57.800Z,8.28
2019-03-13T15:54:27.915Z,8.21
2019-03-13T15:56:58.052Z,8.07
2019-03-13T15:59:27.914Z,7.99
2019-03-13T16:01:58.136Z,7.95
2019-03-13T16:04:28.251Z,7.94
2019-03-13T16:06:58.691Z,7.98
2019-03-13T16:09:28.546Z,7.93
2019-03-13T16:11:58.871Z,7.89
2019-03-13T16:14:28.955Z,7.83
2019-03-13T16:16:58.914Z,7.93
2019-03-13T16:19:29.041Z,7.90
2019-03-13T16:21:58.859Z,7.94
2019-03-13T16:24:29.144Z,7.96
2019-03-13T16:26:58.952Z,7.95
2019-03-13T16:29:30.914Z,8.06
2019-03-13T16:32:00.929Z,8.12
2019-03-13T16:34:30.556Z,8.11
2019-03-13T16:37:00.327Z,8.12
2019-03-13T16:39:30.452Z,8.18
2019-03-13T16:42:00.659Z,8.29
2019-03-13T16:44:30.704Z,8.12
2019-03-13T16:47:01.312Z,8.09
2019-03-13T16:49:34.026Z,8.05
2019-03-13T16:52:04.838Z,8.07
2019-03-13T16:54:36.112Z,8.11
2019-03-13T16:57:05.926Z,8.03
2019-03-13T16:59:36.462Z,8.06
2019-03-13T17:02:06.705Z,8.11
2019-03-13T17:04:36.795Z,8.11
2019-03-13T17:07:07.256Z,7.96
2019-03-13T17:09:38.225Z,7.98
2019-03-13T17:12:08.624Z,7.88
2019-03-13T17:14:39.112Z,7.94
2019-03-13T17:17:09.130Z,7.95
2019-03-13T17:19:39.240Z,7.79
2019-03-13T17:22:09.205Z,7.84
2019-03-13T17:24:39.256Z,7.85
2019-03-13T17:27:09.631Z,7.75
2019-03-13T17:29:39.487Z,7.87
2019-03-13T17:32:09.410Z,7.81
2019-03-13T17:34:38.692Z,7.85
2019-03-13T17:37:08.015Z,7.86
2019-03-13T17:39:37.120Z,7.93
2019-03-13T17:42:06.423Z,7.87
2019-03-13T17:44:35.585Z,7.86
2019-03-13T17:47:04.820Z,7.91
2019-03-13T17:49:34.052Z,7.81
2019-03-13T17:52:03.262Z,7.72
2019-03-13T17:54:32.466Z,7.68
2019-03-13T17:57:01.667Z,7.56
2019-03-13T17:59:30.894Z,7.46
2019-03-13T18:02:00.171Z,7.47
2019-03-13T18:04:29.430Z,7.66
2019-03-13T18:06:58.584Z,7.43
2019-03-13T18:09:27.774Z,7.42
2019-03-13T18:11:56.973Z,7.45
2019-03-13T18:14:29.588Z,7.48
2019-03-13T18:16:57.110Z,7.46
2019-03-13T18:19:26.267Z,7.41
2019-03-13T18:21:55.416Z,7.39
2019-03-13T18:24:24.608Z,7.44
2019-03-13T18:26:53.756Z,7.48
2019-03-13T18:29:22.925Z,7.44
2019-03-13T18:31:52.117Z,7.54
2019-03-13T18:34:21.287Z,7.60
2019-03-13T18:36:54.648Z,7.71
2019-03-13T18:39:23.841Z,7.60
2019-03-13T18:41:52.994Z,7.51
2019-03-13T18:44:22.259Z,7.35
2019-03-13T18:46:51.491Z,7.24
2019-03-13T18:49:20.694Z,7.07
2019-03-13T18:51:49.844Z,6.91
2019-03-13T18:54:18.987Z,6.78
2019-03-13T18:56:48.177Z,6.66
2019-03-13T18:59:17.340Z,6.55
2019-03-13T19:01:46.520Z,6.44
2019-03-13T19:04:15.661Z,6.32
2019-03-13T19:06:44.840Z,6.22
2019-03-13T19:09:13.958Z,6.04
2019-03-13T19:11:43.252Z,5.81
2019-03-13T19:14:12.481Z,5.78
2019-03-13T19:16:41.815Z,5.88
2019-03-13T19:19:10.965Z,5.76
2019-03-13T19:21:40.264Z,5.81
2019-03-13T19:24:09.412Z,5.83
2019-03-13T19:26:38.610Z,5.89
2019-03-13T19:29:07.795Z,5.90
2019-03-13T19:31:37.008Z,5.88
2019-03-13T19:34:06.245Z,5.81
2019-03-13T19:36:35.488Z,5.71
2019-03-13T19:39:05.528Z,5.75
2019-03-13T19:41:34.766Z,5.81
2019-03-13T19:44:03.970Z,5.79
2019-03-13T19:46:33.235Z,5.80
2019-03-13T19:49:02.463Z,5.76
2019-03-13T19:51:31.614Z,5.72
2019-03-13T19:54:01.055Z,5.99
2019-03-13T19:56:30.224Z,6.00
2019-03-13T19:58:59.409Z,5.99
2019-03-13T20:01:28.588Z,6.02
2019-03-13T20:03:57.912Z,6.07
2019-03-13T20:06:27.064Z,6.10
2019-03-13T20:08:56.543Z,6.22
2019-03-13T20:11:25.737Z,6.27
2019-03-13T20:13:54.923Z,6.32
2019-03-13T20:16:24.165Z,6.37
2019-03-13T20:18:53.406Z,6.35
2019-03-13T20:21:22.489Z,6.42
2019-03-13T20:23:51.716Z,6.38
2019-03-13T20:26:20.933Z,6.29
2019-03-13T20:28:50.118Z,6.33
2019-03-13T20:31:19.259Z,6.35
2019-03-13T20:33:48.477Z,6.31
2019-03-13T20:36:17.723Z,6.28
2019-03-13T20:38:47.435Z,6.35
2019-03-13T20:41:16.662Z,6.37
2019-03-13T20:43:46.533Z,6.43
2019-03-13T20:46:15.851Z,6.45
2019-03-13T20:48:45.091Z,6.42
2019-03-13T20:51:14.280Z,6.40
2019-03-13T20:53:43.461Z,6.34
2019-03-13T20:56:12.719Z,6.18
2019-03-13T20:58:41.873Z,6.12
2019-03-13T21:01:11.105Z,6.00
2019-03-13T21:03:40.257Z,5.89
2019-03-13T21:06:09.416Z,5.76
2019-03-13T21:08:38.552Z,5.70
2019-03-13T21:11:07.741Z,5.72
2019-03-13T21:13:37.024Z,5.69
2019-03-13T21:16:06.297Z,5.65
2019-03-13T21:18:35.441Z,5.58
2019-03-13T21:21:04.693Z,5.53
2019-03-13T21:23:33.866Z,5.48
2019-03-13T21:26:03.167Z,5.42
2019-03-13T21:28:32.388Z,5.36
2019-03-13T21:31:03.861Z,5.32
2019-03-13T21:33:32.641Z,5.20
2019-03-13T21:36:01.912Z,5.09
2019-03-13T21:38:31.159Z,4.93
2019-03-13T21:41:00.402Z,5.00
2019-03-13T21:43:29.619Z,4.99
2019-03-13T21:45:58.792Z,4.88
2019-03-13T21:48:28.114Z,4.89
2019-03-13T21:50:57.282Z,4.91
2019-03-13T21:53:26.475Z,4.88
2019-03-13T21:55:55.640Z,4.93
2019-03-13T21:58:24.912Z,5.02
2019-03-13T22:02:40.732Z,5.15
2019-03-13T22:05:09.871Z,5.17
2019-03-13T22:07:39.093Z,5.18
2019-03-13T22:10:08.466Z,5.15
2019-03-13T22:12:37.689Z,5.23
2019-03-13T22:15:07.325Z,5.22
2019-03-13T22:17:36.735Z,5.23
2019-03-13T22:20:06.677Z,5.29
2019-03-13T22:22:35.984Z,5.28
2019-03-13T22:25:05.347Z,5.26
2019-03-13T22:27:34.542Z,5.27
2019-03-13T22:30:03.904Z,5.35
2019-03-13T22:32:33.048Z,5.35
2019-03-13T22:35:02.240Z,5.30
2019-03-13T22:37:31.434Z,5.35
2019-03-13T22:40:00.603Z,5.37
2019-03-13T22:42:30.959Z,5.46
2019-03-13T22:45:00.400Z,5.43
2019-03-13T22:47:41.663Z,5.44
2019-03-13T22:50:00.536Z,5.44
2019-03-13T22:52:29.657Z,5.47
2019-03-13T22:54:59.019Z,5.48
2019-03-13T22:57:28.133Z,5.51
2019-03-13T22:59:57.366Z,5.49
2019-03-13T23:02:26.564Z,5.49
2019-03-13T23:04:55.730Z,5.44
2019-03-13T23:07:24.999Z,5.51
2019-03-13T23:09:54.362Z,5.49
2019-03-13T23:12:23.508Z,5.42
2019-03-13T23:14:52.673Z,5.39
2019-03-13T23:17:21.960Z,5.37
2019-03-13T23:19:51.329Z,5.28
2019-03-13T23:22:20.498Z,5.25
2019-03-13T23:24:49.685Z,5.25
2019-03-13T23:27:18.851Z,5.30
2019-03-13T23:29:48.087Z,5.29
2019-03-13T23:32:17.257Z,5.29
2019-03-13T23:34:46.432Z,5.29
2019-03-13T23:37:15.712Z,5.28
2019-03-13T23:39:44.887Z,5.24
2019-03-13T23:42:14.104Z,5.18
2019-03-13T23:44:43.477Z,5.18
2019-03-13T23:47:12.827Z,5.10
2019-03-13T23:49:41.951Z,5.20
2019-03-13T23:52:11.159Z,5.23
2019-03-13T23:54:40.288Z,5.25
2019-03-13T23:57:09.449Z,5.14
2019-03-13T23:59:38.596Z,5.15
